Time;durP1;ratioP1;P1;durP2;ratioP2;P2;SDS_P1;SDS_P2;PMS_P1;PMS_P2;Temp;Humidity;BMP_temperature;BMP_pressure;BME280_temperature;BME280_humidity;BME280_pressure;Samples;Min_cycle;Max_cycle;Signal;HPM_P1;HPM_P2
2023/01/07 00:01:57;;;;;;;41.95;22.48;;;;;;;;;;4994842;28;20057;-65
2023/01/07 00:04:23;;;;;;;46.75;23.52;;;;;;;;;;4994036;28;20053;-65
2023/01/07 00:06:51;;;;;;;44.55;23.65;;;;;;;;;;4977161;28;20100;-66
2023/01/07 00:09:17;;;;;;;43.97;23.30;;;;;;;;;;4994548;28;20117;-66
2023/01/07 00:11:44;;;;;;;38.20;19.55;;;;;;;;;;4994917;28;20046;-66
2023/01/07 00:14:11;;;;;;;42.72;22.65;;;;;;;;;;4995193;28;20495;-66
2023/01/07 00:16:38;;;;;;;48.88;23.35;;;;;;;;;;4994605;28;20046;-65
2023/01/07 00:19:05;;;;;;;46.38;22.92;;;;;;;;;;4993327;28;20045;-66
2023/01/07 00:21:31;;;;;;;46.90;23.42;;;;;;;;;;5026412;23;20058;-65
2023/01/07 00:23:58;;;;;;;46.10;22.88;;;;;;;;;;4992305;28;20137;-66
2023/01/07 00:26:26;;;;;;;45.03;21.67;;;;;;;;;;4995069;28;20564;-65
2023/01/07 00:28:52;;;;;;;43.65;21.67;;;;;;;;;;4994409;28;20050;-65
2023/01/07 00:31:22;;;;;;;48.55;24.35;;;;;;;;;;4977337;28;20038;-65
2023/01/07 00:36:22;;;;;;;45.08;22.88;;;;;;;;;;4994401;28;20144;-66
2023/01/07 00:38:54;;;;;;;43.60;24.27;;;;;;;;;;4993635;28;20510;-65
2023/01/07 00:41:20;;;;;;;41.85;24.00;;;;;;;;;;4977448;28;20046;-65
2023/01/07 00:43:46;;;;;;;43.58;24.02;;;;;;;;;;4993499;28;20046;-66
2023/01/07 00:46:13;;;;;;;43.15;24.92;;;;;;;;;;4994738;28;20054;-66
2023/01/07 00:48:39;;;;;;;45.03;25.00;;;;;;;;;;4994166;28;20695;-66
2023/01/07 00:51:05;;;;;;;42.40;22.92;;;;;;;;;;4977174;28;20042;-65
2023/01/07 00:53:31;;;;;;;45.78;25.15;;;;;;;;;;4993468;28;20411;-65
2023/01/07 00:55:57;;;;;;;46.35;24.88;;;;;;;;;;4992065;28;20057;-66
2023/01/07 00:58:25;;;;;;;41.85;25.33;;;;;;;;;;4994439;28;20050;-65
2023/01/07 01:00:58;;;;;;;38.90;21.17;;;;;;;;;;4994154;28;20046;-65
2023/01/07 01:03:24;;;;;;;38.08;21.83;;;;;;;;;;4993753;28;20042;-66
2023/01/07 01:05:50;;;;;;;40.30;25.20;;;;;;;;;;4992852;28;20133;-65
2023/01/07 01:08:20;;;;;;;44.13;26.33;;;;;;;;;;4993957;28;20057;-65
2023/01/07 01:10:46;;;;;;;40.22;25.20;;;;;;;;;;4992529;28;20050;-66
2023/01/07 01:13:13;;;;;;;40.40;24.30;;;;;;;;;;4976918;28;20050;-66
2023/01/07 01:15:43;;;;;;;40.70;24.65;;;;;;;;;;4957715;28;20050;-66
2023/01/07 01:18:09;;;;;;;41.00;24.83;;;;;;;;;;4974419;28;20050;-66
2023/01/07 01:20:35;;;;;;;38.47;24.05;;;;;;;;;;4987454;28;20058;-66
2023/01/07 01:23:01;;;;;;;62.75;25.15;;;;;;;;;;4992959;28;20561;-66
2023/01/07 01:25:27;;;;;;;38.78;25.42;;;;;;;;;;4991838;28;20050;-66
2023/01/07 01:27:53;;;;;;;36.80;24.33;;;;;;;;;;4992829;28;20049;-66
2023/01/07 01:30:20;;;;;;;34.33;22.15;;;;;;;;;;4976291;28;20058;-66
2023/01/07 01:32:46;;;;;;;34.20;22.52;;;;;;;;;;4992163;28;20049;-66
2023/01/07 01:35:12;;;;;;;39.58;23.70;;;;;;;;;;4993646;28;20054;-66
2023/01/07 01:37:38;;;;;;;33.38;21.88;;;;;;;;;;4993413;28;20046;-66
2023/01/07 01:40:05;;;;;;;34.97;22.67;;;;;;;;;;4992689;28;20051;-66
2023/01/07 01:42:31;;;;;;;31.63;20.42;;;;;;;;;;4992788;28;20048;-66
2023/01/07 01:44:58;;;;;;;32.17;22.20;;;;;;;;;;4976193;28;20039;-65
2023/01/07 01:47:32;;;;;;;33.70;22.02;;;;;;;;;;4993235;28;20069;-66
2023/01/07 01:50:25;;;;;;;30.30;21.73;;;10.60;99.90;;;;;;4992521;28;20118;-65
2023/01/07 01:52:54;;;;;;;27.63;19.25;;;;;;;;;;4992914;28;20180;-65
2023/01/07 01:55:22;;;;;;;33.65;20.33;;;;;;;;;;4991600;28;20069;-65
2023/01/07 01:57:51;;;;;;;31.88;21.17;;;;;;;;;;4993152;28;20054;-65
2023/01/07 02:00:17;;;;;;;30.60;21.90;;;;;;;;;;4990266;28;20137;-66
2023/01/07 02:02:46;;;;;;;29.75;21.55;;;;;;;;;;4991216;28;20073;-66
2023/01/07 02:05:12;;;;;;;30.67;21.83;;;;;;;;;;4975910;28;20042;-66
2023/01/07 02:07:38;;;;;;;36.92;22.23;;;;;;;;;;4992876;28;20054;-66
2023/01/07 02:10:10;;;;;;;31.70;21.73;;;;;;;;;;4993058;28;20495;-66
2023/01/07 02:12:53;;;;;;;34.38;22.65;;;;;;;;;;4993106;28;20046;-66
2023/01/07 02:15:19;;;;;;;27.60;20.40;;;;;;;;;;4991941;28;20050;-66
2023/01/07 02:17:54;;;;;;;31.60;22.20;;;;;;;;;;4975236;28;20050;-66
2023/01/07 02:20:20;;;;;;;28.80;19.45;;;;;;;;;;4991986;28;20081;-66
2023/01/07 02:22:49;;;;;;;32.65;22.65;;;;;;;;;;4991752;28;20042;-65
2023/01/07 02:25:28;;;;;;;28.35;20.60;;;;;;;;;;4992003;28;20137;-65
2023/01/07 02:28:03;;;;;;;34.40;21.10;;;;;;;;;;4975001;28;20046;-65
2023/01/07 02:30:29;;;;;;;32.95;23.30;;;;;;;;;;4958813;28;20049;-66
2023/01/07 02:33:05;;;;;;;39.05;24.77;;;;;;;;;;4991303;28;20127;-66
2023/01/07 02:35:47;;;;;;;31.65;23.35;;;;;;;;;;4992580;28;20449;-65
2023/01/07 02:38:40;;;;;;;32.28;22.55;;;10.30;99.90;;;;;;4992957;28;20065;-66
2023/01/07 02:41:10;;;;;;;34.25;23.38;;;;;;;;;;4992687;28;20125;-65
2023/01/07 02:43:39;;;;;;;33.90;22.00;;;;;;;;;;4973904;28;20054;-66
2023/01/07 02:46:11;;;;;;;27.92;21.20;;;;;;;;;;4991899;28;20794;-65
2023/01/07 02:48:38;;;;;;;29.25;20.92;;;;;;;;;;4974322;28;20050;-65
2023/01/07 02:51:04;;;;;;;29.45;18.27;;;;;;;;;;4974372;28;20124;-65
2023/01/07 02:53:31;;;;;;;27.65;20.75;;;;;;;;;;4992531;28;20051;-66
2023/01/07 02:56:10;;;;;;;23.73;16.38;;;;;;;;;;4992409;28;20038;-66
2023/01/07 02:58:45;;;;;;;31.70;20.50;;;;;;;;;;4991654;28;20403;-66
2023/01/07 03:01:11;;;;;;;26.40;18.25;;;;;;;;;;4992505;28;20133;-66
2023/01/07 03:03:44;;;;;;;23.83;18.20;;;;;;;;;;4991580;28;20827;-66
2023/01/07 03:06:10;;;;;;;26.08;18.73;;;;;;;;;;4990865;28;20467;-66
2023/01/07 03:08:58;;;;;;;26.48;18.23;;;10.40;99.90;;;;;;4975295;28;20176;-66
2023/01/07 03:11:26;;;;;;;25.27;19.80;;;;;;;;;;4992305;28;20078;-66
2023/01/07 03:14:15;;;;;;;26.35;18.63;;;;;;;;;;4973427;28;20042;-65
2023/01/07 03:16:43;;;;;;;27.73;18.85;;;;;;;;;;4992404;28;20214;-66
2023/01/07 03:19:12;;;;;;;26.85;19.27;;;;;;;;;;4989837;28;20084;-66
2023/01/07 03:21:38;;;;;;;25.60;18.60;;;;;;;;;;4974344;28;20105;-66
2023/01/07 03:24:05;;;;;;;26.17;19.73;;;;;;;;;;4975102;28;20042;-66
2023/01/07 03:26:33;;;;;;;24.90;17.15;;;;;;;;;;4974799;28;20061;-66
2023/01/07 03:29:00;;;;;;;26.63;17.55;;;;;;;;;;4991183;28;20046;-66
2023/01/07 03:31:26;;;;;;;24.95;16.80;;;;;;;;;;4992466;28;20043;-66
2023/01/07 03:33:56;;;;;;;27.88;18.80;;;;;;;;;;4990845;28;20050;-66
2023/01/07 03:36:25;;;;;;;29.77;18.73;;;;;;;;;;4992091;28;20054;-66
2023/01/07 03:38:52;;;;;;;25.67;18.63;;;;;;;;;;4974674;28;20050;-66
2023/01/07 03:44:02;;;;;;;25.42;18.05;;;;;;;;;;4990962;28;20058;-66
2023/01/07 03:46:28;;;;;;;24.10;16.27;;;;;;;;;;4995709;28;20402;-66
2023/01/07 03:48:54;;;;;;;26.48;17.17;;;;;;;;;;4994160;28;20451;-66
2023/01/07 03:51:20;;;;;;;23.23;15.43;;;;;;;;;;4995782;28;20144;-66
2023/01/07 03:53:46;;;;;;;23.23;16.70;;;;;;;;;;4993979;28;20042;-66
2023/01/07 03:56:12;;;;;;;25.98;17.00;;;;;;;;;;4995167;28;20508;-66
2023/01/07 03:58:39;;;;;;;18.67;13.20;;;;;;;;;;4995108;28;20046;-66
2023/01/07 04:01:05;;;;;;;30.08;17.58;;;;;;;;;;4978580;28;20042;-66
2023/01/07 04:03:31;;;;;;;26.75;15.38;;;;;;;;;;4994609;28;20498;-66
2023/01/07 04:05:57;;;;;;;28.63;18.40;;;;;;;;;;4995094;28;20046;-66
2023/01/07 04:08:23;;;;;;;25.23;17.02;;;;;;;;;;4994690;28;20053;-66
2023/01/07 04:10:49;;;;;;;29.80;17.60;;;;;;;;;;4993531;28;20483;-66
2023/01/07 04:13:15;;;;;;;24.83;18.00;;;;;;;;;;4977659;28;20108;-66
2023/01/07 04:15:41;;;;;;;27.10;18.10;;;;;;;;;;4994842;28;20054;-66
2023/01/07 04:18:07;;;;;;;26.35;18.10;;;;;;;;;;4995356;28;20410;-66
2023/01/07 04:20:33;;;;;;;26.10;16.67;;;;;;;;;;4994776;28;20057;-66
2023/01/07 04:22:59;;;;;;;29.88;17.05;;;;;;;;;;4994088;28;20065;-66
2023/01/07 04:25:25;;;;;;;25.48;17.38;;;;;;;;;;4977495;28;20062;-66
2023/01/07 04:27:51;;;;;;;28.17;15.75;;;;;;;;;;4993914;28;20092;-66
2023/01/07 04:30:17;;;;;;;20.52;13.20;;;;;;;;;;4994950;28;20050;-66
2023/01/07 04:32:43;;;;;;;25.25;16.45;;;;;;;;;;4994675;28;20535;-66
2023/01/07 04:35:10;;;;;;;26.83;16.50;;;;;;;;;;4977529;28;20047;-66
2023/01/07 04:37:36;;;;;;;24.83;16.60;;;;;;;;;;4992946;28;20172;-66
2023/01/07 04:40:02;;;;;;;23.63;17.58;;;;;;;;;;4993501;28;20046;-66
2023/01/07 04:42:28;;;;;;;26.05;16.75;;;;;;;;;;4994613;28;20503;-66
2023/01/07 04:44:54;;;;;;;21.02;15.32;;;;;;;;;;4994378;28;20058;-66
2023/01/07 04:47:20;;;;;;;25.35;16.65;;;;;;;;;;4994687;28;20050;-66
2023/01/07 04:49:46;;;;;;;22.08;13.88;;;;;;;;;;4992973;28;20049;-66
2023/01/07 04:52:12;;;;;;;23.17;15.13;;;;;;;;;;4993180;28;20050;-66
2023/01/07 04:54:38;;;;;;;18.98;14.20;;;;;;;;;;4976690;28;20129;-66
2023/01/07 04:57:04;;;;;;;20.83;13.30;;;;;;;;;;4993226;28;20053;-66
2023/01/07 04:59:30;;;;;;;21.15;14.23;;;;;;;;;;4994480;28;20046;-66
2023/01/07 05:01:56;;;;;;;20.58;13.45;;;;;;;;;;4977072;28;20054;-66
2023/01/07 05:04:22;;;;;;;21.65;15.02;;;;;;;;;;4994294;28;20609;-66
2023/01/07 05:06:48;;;;;;;23.58;13.95;;;;;;;;;;4992154;28;20097;-66
2023/01/07 05:09:14;;;;;;;23.60;15.68;;;;;;;;;;4993721;28;20100;-66
2023/01/07 05:11:40;;;;;;;20.65;13.60;;;;;;;;;;4993358;28;20054;-67
2023/01/07 05:14:06;;;;;;;21.88;14.05;;;;;;;;;;4994140;28;20042;-66
2023/01/07 05:16:32;;;;;;;24.23;12.90;;;;;;;;;;4993988;28;20466;-66
2023/01/07 05:18:58;;;;;;;19.73;13.55;;;;;;;;;;4975601;28;20046;-66
2023/01/07 05:21:24;;;;;;;16.90;12.55;;;;;;;;;;4993404;28;20406;-66
2023/01/07 05:23:51;;;;;;;18.55;11.80;;;;;;;;;;4993346;28;20057;-66
2023/01/07 05:26:16;;;;;;;16.83;11.60;;;;;;;;;;4994104;28;20042;-66
2023/01/07 05:28:43;;;;;;;18.40;11.70;;;;;;;;;;4993126;28;20264;-66
2023/01/07 05:31:08;;;;;;;20.17;11.82;;;;;;;;;;4993983;28;20574;-66
2023/01/07 05:33:35;;;;;;;17.95;11.70;;;;;;;;;;4975592;28;20057;-66
2023/01/07 05:36:01;;;;;;;16.52;11.40;;;;;;;;;;4975388;28;20038;-67
2023/01/07 05:38:27;;;;;;;18.88;11.48;;;;;;;;;;4991964;28;20042;-67
2023/01/07 05:40:53;;;;;;;21.02;12.32;;;;;;;;;;4991566;28;20414;-67
2023/01/07 05:43:20;;;;;;;18.77;11.07;;;;;;;;;;4993292;28;20061;-66
2023/01/07 05:45:46;;;;;;;19.17;10.95;;;;;;;;;;4993353;28;20410;-66
2023/01/07 05:48:12;;;;;;;13.70;9.90;;;;;;;;;;4993588;28;20046;-66
2023/01/07 05:50:38;;;;;;;19.35;11.13;;;;;;;;;;4976387;28;20054;-66
2023/01/07 05:53:04;;;;;;;14.40;10.27;;;;;;;;;;4993222;28;20125;-67
2023/01/07 05:55:30;;;;;;;17.65;10.38;;;;;;;;;;4992658;28;20104;-66
2023/01/07 05:57:56;;;;;;;14.82;10.35;;;;;;;;;;4992414;28;20566;-66
2023/01/07 06:00:22;;;;;;;16.42;11.18;;;;;;;;;;4985203;28;20045;-66
2023/01/07 06:02:48;;;;;;;17.80;11.07;;;;;;;;;;4992245;28;20545;-66
2023/01/07 06:05:14;;;;;;;16.73;10.52;;;;;;;;;;4993358;28;20053;-66
2023/01/07 06:07:40;;;;;;;18.00;11.50;;;;;;;;;;4992443;28;20495;-66
2023/01/07 06:10:06;;;;;;;15.57;8.80;;;;;;;;;;4975030;28;20106;-66
2023/01/07 06:12:33;;;;;;;15.43;10.40;;;;;;;;;;4993358;28;20046;-66
2023/01/07 06:14:59;;;;;;;17.35;10.65;;;;;;;;;;4992759;28;20049;-66
2023/01/07 06:17:25;;;;;;;14.68;9.98;;;;;;;;;;4992203;28;20161;-66
2023/01/07 06:19:51;;;;;;;13.55;8.38;;;;;;;;;;4992845;28;20050;-66
2023/01/07 06:22:17;;;;;;;14.95;9.68;;;;;;;;;;4992821;28;20050;-66
2023/01/07 06:24:43;;;;;;;16.23;9.63;;;;;;;;;;4991696;28;20459;-67
2023/01/07 06:27:09;;;;;;;12.23;9.07;;;;;;;;;;4992007;28;20077;-66
2023/01/07 06:29:36;;;;;;;13.07;9.63;;;;;;;;;;4992667;28;20510;-66
2023/01/07 06:32:02;;;;;;;13.98;9.00;;;;;;;;;;4991728;28;20046;-66
2023/01/07 06:34:28;;;;;;;16.45;9.93;;;;;;;;;;4992419;28;20057;-66
2023/01/07 06:36:54;;;;;;;15.07;9.43;;;;;;;;;;4992307;28;20054;-66
2023/01/07 06:39:20;;;;;;;15.45;10.05;;;;;;;;;;4991926;28;20376;-66
2023/01/07 06:41:46;;;;;;;19.30;11.23;;;;;;;;;;4992101;28;20050;-66
2023/01/07 06:44:11;;;;;;;13.85;9.35;;;;;;;;;;4992371;28;20050;-66
2023/01/07 06:46:38;;;;;;;15.98;10.30;;;;;;;;;;4992435;28;20407;-66
2023/01/07 06:49:04;;;;;;;13.07;8.90;;;;;;;;;;4992453;28;20078;-66
2023/01/07 06:51:30;;;;;;;12.70;7.95;;;;;;;;;;4992253;28;20043;-66
2023/01/07 06:53:56;;;;;;;12.88;9.07;;;;;;;;;;4974556;28;20054;-66
2023/01/07 06:56:22;;;;;;;10.90;7.25;;;;;;;;;;4994550;23;20078;-66
2023/01/07 06:58:48;;;;;;;13.90;8.63;;;;;;;;;;5034077;28;20077;-66
2023/01/07 07:01:14;;;;;;;13.30;8.43;;;;;;;;;;5031717;28;20462;-65
2023/01/07 07:03:40;;;;;;;12.90;8.82;;;;;;;;;;5026230;28;20100;-65
2023/01/07 07:06:06;;;;;;;14.27;8.23;;;;;;;;;;5015324;28;20082;-66
2023/01/07 07:08:36;;;;;;;13.65;8.13;;;;;;;;;;5043995;23;20053;31
2023/01/07 07:11:02;;;;;;;11.18;7.43;;;;;;;;;;5000835;22;20410;-66
2023/01/07 07:13:28;;;;;;;10.27;7.10;;;;;;;;;;4975038;28;20159;-66
2023/01/07 07:15:54;;;;;;;11.65;6.72;;;;;;;;;;4991684;28;20519;-66
2023/01/07 07:18:20;;;;;;;14.20;8.30;;;;;;;;;;4991724;28;20054;-66
2023/01/07 07:20:46;;;;;;;10.45;7.18;;;;;;;;;;4993933;28;20047;-66
2023/01/07 07:23:12;;;;;;;11.93;7.43;;;;;;;;;;4979026;28;20060;-66
2023/01/07 07:25:38;;;;;;;9.68;7.00;;;;;;;;;;4996135;28;20042;-66
2023/01/07 07:28:04;;;;;;;12.48;7.03;;;;;;;;;;4994659;28;20042;-66
2023/01/07 07:30:30;;;;;;;10.15;7.22;;;;;;;;;;4977747;28;20129;-66
2023/01/07 07:33:02;;;;;;;16.50;7.40;;;;;;;;;;4995090;28;20096;-66
2023/01/07 07:35:28;;;;;;;11.57;7.15;;;;;;;;;;4995389;28;20088;-66
2023/01/07 07:37:54;;;;;;;11.15;7.00;;;;;;;;;;4995848;28;20141;-66
2023/01/07 07:40:20;;;;;;;11.13;7.65;;;;;;;;;;4995208;28;20050;-66
2023/01/07 07:42:46;;;;;;;11.73;6.68;;;;;;;;;;5000190;28;20045;-66
2023/01/07 07:45:14;;;;;;;12.95;7.43;;;;;;;;;;4986060;28;20130;-66
2023/01/07 07:47:41;;;;;;;12.27;7.18;;;;;;;;;;4994762;28;20054;-66
2023/01/07 07:50:07;;;;;;;9.10;6.85;;;;;;;;;;4994449;28;20038;-66
2023/01/07 07:52:33;;;;;;;9.80;7.15;;;;;;;;;;4995845;28;20407;-64
2023/01/07 07:54:59;;;;;;;11.15;6.68;;;;;;;;;;4995307;28;20043;-67
2023/01/07 07:57:25;;;;;;;17.00;8.23;;;;;;;;;;4976985;28;20096;-65
2023/01/07 07:59:51;;;;;;;10.90;7.03;;;;;;;;;;4977362;28;20145;-65
2023/01/07 08:02:18;;;;;;;9.10;6.53;;;;;;;;;;4977816;28;20066;-65
2023/01/07 08:04:44;;;;;;;14.02;6.88;;;;;;;;;;4994216;28;20454;-65
2023/01/07 08:07:11;;;;;;;14.98;8.15;;;;;;;;;;4994620;28;20046;-65
2023/01/07 08:09:37;;;;;;;11.63;6.38;;;;;;;;;;4994579;28;20061;-65
2023/01/07 08:12:03;;;;;;;9.18;5.95;;;;;;;;;;4987550;28;20042;-65
2023/01/07 08:14:29;;;;;;;14.05;6.38;;;;;;;;;;5014759;28;20045;-65
2023/01/07 08:16:55;;;;;;;11.60;6.75;;;;;;;;;;4990136;28;20061;-65
2023/01/07 08:19:21;;;;;;;9.65;6.07;;;;;;;;;;5012934;28;20046;-64
2023/01/07 08:21:48;;;;;;;8.45;5.50;;;;;;;;;;5013867;28;20049;-65
2023/01/07 08:24:14;;;;;;;11.02;5.55;;;;;;;;;;5013299;28;20057;-64
2023/01/07 08:26:40;;;;;;;11.80;5.72;;;;;;;;;;5014583;28;20042;-65
2023/01/07 08:29:06;;;;;;;14.13;5.53;;;;;;;;;;5014065;28;20497;-64
2023/01/07 08:31:32;;;;;;;7.53;5.13;;;;;;;;;;5012897;28;20054;-64
2023/01/07 08:33:58;;;;;;;10.38;4.80;;;;;;;;;;5013337;28;20406;-64
2023/01/07 08:36:24;;;;;;;9.48;4.93;;;;;;;;;;5014341;28;20132;-64
2023/01/07 08:38:51;;;;;;;8.20;4.53;;;;;;;;;;4996524;28;20153;-64
2023/01/07 08:41:17;;;;;;;6.18;4.10;;;;;;;;;;5014062;28;20045;-64
2023/01/07 08:43:43;;;;;;;7.45;4.70;;;;;;;;;;4996080;28;20050;-65
2023/01/07 08:46:10;;;;;;;7.82;4.32;;;;;;;;;;4979508;28;20229;-64
2023/01/07 08:48:37;;;;;;;12.90;4.35;;;;;;;;;;4991088;28;20046;-65
2023/01/07 08:51:03;;;;;;;7.20;4.35;;;;;;;;;;5013416;28;20042;-65
2023/01/07 08:53:29;;;;;;;7.82;4.05;;;;;;;;;;4995683;28;20049;-65
2023/01/07 08:55:55;;;;;;;5.43;3.42;;;;;;;;;;4996046;28;20108;-65
2023/01/07 08:58:22;;;;;;;9.15;4.07;;;;;;;;;;5013942;28;20053;-65
2023/01/07 09:00:48;;;;;;;8.82;4.05;;;;;;;;;;4995658;28;20038;-65
2023/01/07 09:03:14;;;;;;;5.15;3.63;;;;;;;;;;5012712;28;20406;-66
2023/01/07 09:05:40;;;;;;;8.10;4.30;;;;;;;;;;5009562;28;20041;-65
2023/01/07 09:08:06;;;;;;;5.03;3.08;;;;;;;;;;5013411;28;20068;-65
2023/01/07 09:10:32;;;;;;;4.40;2.90;;;;;;;;;;5013650;28;20053;-65
2023/01/07 09:12:58;;;;;;;6.03;2.90;;;;;;;;;;4999937;28;20050;-65
2023/01/07 09:15:24;;;;;;;6.65;3.22;;;;;;;;;;4982073;28;20061;-65
2023/01/07 09:17:51;;;;;;;4.55;2.88;;;;;;;;;;4995898;28;20079;-65
2023/01/07 09:20:17;;;;;;;5.53;2.65;;;;;;;;;;5002758;28;20092;-65
2023/01/07 09:22:43;;;;;;;6.25;2.78;;;;;;;;;;4990473;28;20475;-65
2023/01/07 09:25:09;;;;;;;4.65;2.72;;;;;;;;;;5003691;28;20580;-65
2023/01/07 09:27:36;;;;;;;5.15;2.60;;;;;;;;;;5008949;28;20050;-65
2023/01/07 09:30:03;;;;;;;4.40;2.40;;;;;;;;;;4993369;28;20057;-65
2023/01/07 09:32:29;;;;;;;5.95;2.67;;;;;;;;;;4992956;28;20521;-65
2023/01/07 09:34:55;;;;;;;5.45;2.30;;;;;;;;;;5009997;28;20498;-65
2023/01/07 09:37:22;;;;;;;5.68;2.13;;;;;;;;;;5011917;28;20046;-65
2023/01/07 09:39:48;;;;;;;5.22;2.67;;;;;;;;;;4987551;28;20078;-65
2023/01/07 09:42:33;;;;;;;3.72;1.92;;;;;;;;;;4979440;28;20058;-65
2023/01/07 09:45:13;;;;;;;3.70;2.13;;;;;;;;;;5000287;28;20536;-65
2023/01/07 09:47:42;;;;;;;5.82;2.10;;;;;;;;;;4995446;28;20049;-66
2023/01/07 09:50:17;;;;;;;6.97;2.15;;;;;;;;;;5008343;28;20398;-65
2023/01/07 09:52:45;;;;;;;3.78;1.90;;;;;;;;;;4988001;28;20498;-65
2023/01/07 09:55:46;;;;;;;3.42;1.85;;;;;;;;;;4994510;28;20038;-65
2023/01/07 09:58:16;;;;;;;3.72;1.55;;;;;;;;;;4929837;29;20504;-64
2023/01/07 10:01:09;;;;;;;4.78;2.13;;;9.80;99.90;;;;;;4926161;29;20059;-65
2023/01/07 10:03:50;;;;;;;4.28;1.75;;;;;;;;;;4942263;29;20531;-64
2023/01/07 10:06:16;;;;;;;3.05;2.20;;;;;;;;;;4930199;29;20118;-64
2023/01/07 10:09:08;;;;;;;3.28;1.73;;;10.30;99.90;;;;;;4932914;29;20131;-65
2023/01/07 10:11:46;;;;;;;3.85;1.90;;;;;;;;;;4921727;29;20130;-65
2023/01/07 10:14:24;;;;;;;4.50;1.75;;;;;;;;;;4929435;29;20106;-65
2023/01/07 10:17:18;;;;;;;3.58;1.85;;;;;;;;;;4922684;29;20052;-65
2023/01/07 10:20:00;;;;;;;4.35;1.70;;;;;;;;;;4913582;29;20492;-65
2023/01/07 10:22:27;;;;;;;3.05;1.33;;;;;;;;;;4921774;29;20096;-66
2023/01/07 10:24:57;;;;;;;3.20;1.35;;;;;;;;;;4929248;29;20051;-65
2023/01/07 10:27:29;;;;;;;3.10;1.52;;;;;;;;;;4912906;29;21430;-66
2023/01/07 10:29:58;;;;;;;3.67;1.60;;;;;;;;;;4917566;29;20070;-65
2023/01/07 10:32:28;;;;;;;2.58;1.38;;;;;;;;;;4971162;28;20093;-65
2023/01/07 10:34:56;;;;;;;3.38;1.40;;;;;;;;;;5010680;28;20195;-65
2023/01/07 10:37:25;;;;;;;2.22;1.30;;;;;;;;;;4999635;28;20050;-65
2023/01/07 10:39:59;;;;;;;4.32;1.70;;;;;;;;;;5011768;28;20042;-65
2023/01/07 10:42:34;;;;;;;2.53;1.20;;;;;;;;;;4994786;28;20053;-65
2023/01/07 10:45:19;;;;;;;4.25;1.20;;;;;;;;;;4991197;28;20530;-65
2023/01/07 10:48:13;;;;;;;3.08;1.08;;;10.80;99.90;;;;;;4994066;28;20054;-65
2023/01/07 10:50:41;;;;;;;3.45;1.50;;;;;;;;;;5012248;28;20096;-65
2023/01/07 10:53:17;;;;;;;2.50;1.33;;;;;;;;;;5011176;28;20054;-65
2023/01/07 10:55:48;;;;;;;2.83;1.67;;;;;;;;;;5005617;28;20055;-64
2023/01/07 10:58:14;;;;;;;3.38;1.63;;;;;;;;;;5007295;28;20092;-64
2023/01/07 11:00:41;;;;;;;4.32;2.42;;;;;;;;;;5002047;28;20143;-65
2023/01/07 11:03:15;;;;;;;3.70;1.45;;;;;;;;;;4994304;28;20101;-64
2023/01/07 11:05:41;;;;;;;3.70;1.20;;;;;;;;;;4990830;28;20724;-71
2023/01/07 11:08:11;;;;;;;4.57;1.13;;;;;;;;;;4997660;28;20038;-63
2023/01/07 11:10:38;;;;;;;1.83;1.13;;;;;;;;;;5014892;28;20041;-64
2023/01/07 11:13:20;;;;;;;2.63;1.08;;;;;;;;;;4996223;28;20057;-63
2023/01/07 11:15:50;;;;;;;2.22;1.13;;;;;;;;;;5363757;23;20103;-63
2023/01/07 11:18:19;;;;;;;1.80;0.90;;;;;;;;;;5051634;28;20045;-63
2023/01/07 11:20:45;;;;;;;2.03;0.95;;;;;;;;;;5041444;28;20041;-64
2023/01/07 11:23:31;;;;;;;4.80;1.00;;;;;;;;;;5031887;28;20064;-63
2023/01/07 11:26:15;;;;;;;1.95;1.08;;;;;;;;;;5037413;28;20053;-64
2023/01/07 11:28:52;;;;;;;2.78;1.10;;;;;;;;;;5031795;28;20051;-63
2023/01/07 11:31:18;;;;;;;2.08;1.00;;;;;;;;;;5049328;28;20381;-64
2023/01/07 11:33:49;;;;;;;2.40;1.38;;;;;;;;;;5051077;28;20881;-63
2023/01/07 11:36:15;;;;;;;2.72;1.30;;;;;;;;;;5042028;28;20106;-64
2023/01/07 11:38:41;;;;;;;2.80;1.50;;;;;;;;;;5047098;28;20400;-64
2023/01/07 11:41:24;;;;;;;2.50;1.20;;;;;;;;;;5041189;28;20120;-63
2023/01/07 11:43:52;;;;;;;2.80;1.15;;;;;;;;;;5050377;28;20041;-63
2023/01/07 11:46:18;;;;;;;3.97;1.20;;;;;;;;;;5050365;28;20049;-64
2023/01/07 11:48:51;;;;;;;3.35;1.20;;;;;;;;;;5050921;28;20048;-64
2023/01/07 11:51:17;;;;;;;2.78;1.30;;;;;;;;;;5032744;28;20057;-64
2023/01/07 11:53:47;;;;;;;2.30;0.98;;;;;;;;;;5048484;28;20045;-64
2023/01/07 11:56:22;;;;;;;1.80;0.85;;;;;;;;;;5039514;28;20622;-64
2023/01/07 11:58:49;;;;;;;2.95;0.95;;;;;;;;;;5047029;28;20052;-64
2023/01/07 12:01:15;;;;;;;1.98;0.88;;;;;;;;;;5039984;28;20041;-64
2023/01/07 12:04:01;;;;;;;1.48;0.90;;;;;;;;;;5046424;28;20056;-64
2023/01/07 12:06:31;;;;;;;1.67;0.93;;;;;;;;;;5053403;28;20037;-64
2023/01/07 12:09:03;;;;;;;6.90;1.10;;;;;;;;;;5031324;28;20051;-64
2023/01/07 12:11:33;;;;;;;2.45;1.05;;;;;;;;;;5051496;28;20053;-64
2023/01/07 12:14:06;;;;;;;2.08;1.00;;;;;;;;;;5034472;28;20048;-64
2023/01/07 12:16:34;;;;;;;2.90;1.73;;;;;;;;;;5051475;28;20137;-64
2023/01/07 12:19:06;;;;;;;1.42;0.80;;;;;;;;;;5054219;28;20060;-64
2023/01/07 12:21:35;;;;;;;2.00;0.88;;;;;;;;;;5054542;28;20485;-64
2023/01/07 12:24:31;;;;;;;1.63;0.77;;;;;;;;;;5053357;28;20086;-64
2023/01/07 12:27:05;;;;;;;3.40;0.93;;;;;;;;;;5045608;28;20045;-64
2023/01/07 12:29:46;;;;;;;2.03;1.05;;;;;;;;;;5053801;28;20122;-64
2023/01/07 12:32:23;;;;;;;3.97;1.05;;;;;;;;;;5045408;28;20251;-64
2023/01/07 12:34:51;;;;;;;2.85;0.90;;;;;;;;;;5031818;28;20049;-64
2023/01/07 12:37:20;;;;;;;2.40;1.20;;;;;;;;;;5034521;28;20049;-64
2023/01/07 12:39:47;;;;;;;1.95;1.00;;;;;;;;;;5033913;28;20037;-64
2023/01/07 12:42:20;;;;;;;2.08;0.70;;;;;;;;;;5036908;28;20052;-64
2023/01/07 12:44:48;;;;;;;1.27;0.70;;;;;;;;;;5052189;28;20037;-64
2023/01/07 12:47:23;;;;;;;2.50;1.10;;;;;;;;;;5048743;28;20060;-64
2023/01/07 12:49:53;;;;;;;2.15;1.08;;;;;;;;;;5043676;28;20789;-64
2023/01/07 12:52:19;;;;;;;;;;;;;;;;;;5054281;28;20136;-64
2023/01/07 12:54:51;;;;;;;1.60;0.90;;;;;;;;;;5034265;28;20012;-64
2023/01/07 12:57:37;;;;;;;2.40;1.13;;;;;;;;;;5045515;28;20130;-64
2023/01/07 13:00:07;;;;;;;2.80;1.30;;;;;;;;;;5052660;28;20106;-64
2023/01/07 13:02:50;;;;;;;2.30;1.25;;;;;;;;;;5049337;28;20068;-64
2023/01/07 13:05:53;;;;;;;2.80;1.40;;;11.30;99.90;;;;;;5041298;28;20099;-64
2023/01/07 13:08:19;;;;;;;2.72;1.60;;;;;;;;;;5032352;28;20123;-64
2023/01/07 13:10:50;;;;;;;6.57;1.70;;;;;;;;;;5029603;28;20429;-64
2023/01/07 13:13:30;;;;;;;5.80;2.05;;;;;;;;;;5041970;28;20454;-64
2023/01/07 13:15:56;;;;;;;3.07;1.43;;;;;;;;;;5037540;28;20041;-64
2023/01/07 13:18:22;;;;;;;3.30;1.90;;;;;;;;;;5043806;28;20303;-64
2023/01/07 13:21:14;;;;;;;31.10;7.00;;;11.30;99.90;;;;;;5052595;28;20068;-64
2023/01/07 13:23:52;;;;;;;4.53;1.73;;;;;;;;;;5048338;28;20048;-64
2023/01/07 13:26:24;;;;;;;4.18;1.30;;;;;;;;;;5032172;28;20049;-63
2023/01/07 13:28:55;;;;;;;2.90;1.35;;;;;;;;;;5032719;28;20055;-63
2023/01/07 13:31:24;;;;;;;3.33;1.20;;;;;;;;;;5035266;28;20076;-63
2023/01/07 13:34:00;;;;;;;3.35;1.20;;;;;;;;;;5041592;28;20080;-64
2023/01/07 13:36:31;;;;;;;5.63;1.60;;;;;;;;;;5029051;28;20058;-63
2023/01/07 13:39:10;;;;;;;2.88;1.35;;;;;;;;;;5033169;28;20408;-63
2023/01/07 13:42:06;;;;;;;3.80;1.63;;;10.80;99.90;;;;;;5033476;28;20083;-64
2023/01/07 13:44:38;;;;;;;3.67;2.10;;;;;;;;;;5009334;28;20401;-63
2023/01/07 13:47:05;;;;;;;6.72;1.83;;;;;;;;;;5048105;28;20049;-64
2023/01/07 13:49:32;;;;;;;2.75;1.40;;;;;;;;;;5036550;28;20041;-64
2023/01/07 13:52:15;;;;;;;4.75;2.03;;;;;;;;;;5030934;28;20045;-63
2023/01/07 13:54:50;;;;;;;2.72;1.50;;;;;;;;;;5048810;28;20053;-64
2023/01/07 13:57:36;;;;;;;3.90;2.00;;;;;;;;;;5035868;28;20076;-63
2023/01/07 14:00:04;;;;;;;2.85;1.50;;;;;;;;;;5037041;28;20049;-63
2023/01/07 14:02:50;;;;;;;2.80;1.52;;;;;;;;;;5046464;28;20052;-64
2023/01/07 14:05:19;;;;;;;3.42;1.50;;;;;;;;;;5049766;28;20109;-63
2023/01/07 14:07:50;;;;;;;4.55;2.00;;;;;;;;;;5045230;28;20049;-64
2023/01/07 14:10:28;;;;;;;2.70;1.70;;;;;;;;;;5036503;28;20049;-64
2023/01/07 14:13:12;;;;;;;5.47;1.75;;;11.10;99.90;;;;;;5012322;28;20049;-63
2023/01/07 14:15:41;;;;;;;3.75;1.70;;;;;;;;;;5022423;28;20436;-64
2023/01/07 14:18:13;;;;;;;3.15;2.17;;;;;;;;;;5032415;28;20056;-63
2023/01/07 14:20:39;;;;;;;5.28;1.30;;;;;;;;;;5047735;28;20120;-64
2023/01/07 14:23:18;;;;;;;2.47;1.42;;;;;;;;;;5050577;28;20141;-64
2023/01/07 14:25:58;;;;;;;1.92;0.90;;;;;;;;;;5051175;28;20071;-63
2023/01/07 14:28:42;;;;;;;2.35;1.27;;;10.90;99.90;;;;;;5050500;28;20052;-63
2023/01/07 14:31:28;;;;;;;3.25;1.80;;;;;;;;;;5029807;28;20107;-64
2023/01/07 14:34:18;;;;;;;2.35;1.30;;;10.80;99.90;;;;;;5051187;28;20052;-64
2023/01/07 14:37:10;;;;;;;3.92;1.35;;;;;;;;;;5027115;28;20053;-64
2023/01/07 14:39:41;;;;;;;4.35;1.38;;;;;;;;;;5047677;28;20064;-64
2023/01/07 14:42:20;;;;;;;5.57;2.35;;;;;;;;;;5041970;28;20396;-63
2023/01/07 14:44:49;;;;;;;8.95;4.13;;;;;;;;;;5043436;28;20045;-64
2023/01/07 14:47:40;;;;;;;3.38;1.52;;;10.70;99.90;;;;;;5040361;28;20044;-63